MSR671 HECA-OEJN
Flight info
| Callsign | MSR671 |
|---|---|
| Flight time | 1h 55m |
| Altitude | 35000 |
| Route | CVO A727 NABED T55 DEDLU M999 MUVOL |
| Aircraft | B738/M-SDE2E3FGHIRWXY/LB1 |
Departure
| Time | 2026-04-29 12:25 |
|---|---|
| Airport | Cairo International Airport (HECA) |
Arrival
| Time | 2026-04-29 14:20 |
|---|---|
| Airport | King Abdulaziz International Airport (OEJN) |
| Time | Latitude | Longitude | Altitude | Speed | Heading |
|---|---|---|---|---|---|
| 2026-04-29 11:53 | 30.10736 | 31.39679 | 369 ft | 0 kts | 256° |
| 2026-04-29 12:16 | 30.10742 | 31.39704 | 369 ft | 4 kts | 250° |
| 2026-04-29 12:17 | 30.10752 | 31.39733 | 369 ft | 4 kts | 240° |
| 2026-04-29 12:17 | 30.10767 | 31.39758 | 369 ft | 4 kts | 221° |
| 2026-04-29 12:17 | 30.10788 | 31.39770 | 369 ft | 3 kts | 170° |
| 2026-04-29 12:17 | 30.10791 | 31.39770 | 369 ft | 0 kts | 165° |
| 2026-04-29 12:21 | 30.10778 | 31.39774 | 369 ft | 5 kts | 165° |
| 2026-04-29 12:21 | 30.10711 | 31.39794 | 369 ft | 14 kts | 165° |
| 2026-04-29 12:21 | 30.10593 | 31.39829 | 371 ft | 19 kts | 164° |
| 2026-04-29 12:21 | 30.10465 | 31.39868 | 377 ft | 19 kts | 164° |
| 2026-04-29 12:22 | 30.10361 | 31.39798 | 380 ft | 18 kts | 229° |
| 2026-04-29 12:22 | 30.10279 | 31.39690 | 385 ft | 18 kts | 229° |
| 2026-04-29 12:22 | 30.10199 | 31.39587 | 388 ft | 17 kts | 220° |
| 2026-04-29 12:22 | 30.10097 | 31.39613 | 388 ft | 17 kts | 139° |
| 2026-04-29 12:23 | 30.10016 | 31.39704 | 387 ft | 16 kts | 120° |
| 2026-04-29 12:23 | 30.10006 | 31.39828 | 387 ft | 15 kts | 82° |
| 2026-04-29 12:23 | 30.10044 | 31.39932 | 387 ft | 10 kts | 48° |
| 2026-04-29 12:23 | 30.10092 | 31.39994 | 387 ft | 11 kts | 49° |
| 2026-04-29 12:24 | 30.10175 | 31.40105 | 387 ft | 38 kts | 49° |
| 2026-04-29 12:24 | 30.10507 | 31.40547 | 386 ft | 107 kts | 49° |
| 2026-04-29 12:24 | 30.11128 | 31.41369 | 392 ft | 163 kts | 47° |
| 2026-04-29 12:24 | 30.11960 | 31.42434 | 721 ft | 188 kts | 46° |
| 2026-04-29 12:25 | 30.12911 | 31.43609 | 1189 ft | 212 kts | 44° |
| 2026-04-29 12:25 | 30.13858 | 31.44973 | 1713 ft | 221 kts | 62° |
| 2026-04-29 12:25 | 30.13944 | 31.48491 | 2695 ft | 236 kts | 118° |
| 2026-04-29 12:26 | 30.12845 | 31.49883 | 3095 ft | 244 kts | 149° |
| 2026-04-29 12:26 | 30.11245 | 31.50623 | 3528 ft | 253 kts | 165° |
| 2026-04-29 12:26 | 30.09513 | 31.51207 | 3969 ft | 267 kts | 164° |
| 2026-04-29 12:26 | 30.07676 | 31.51823 | 4460 ft | 282 kts | 165° |
| 2026-04-29 12:27 | 30.05736 | 31.52170 | 5217 ft | 282 kts | 180° |
| 2026-04-29 12:27 | 30.03786 | 31.52142 | 6046 ft | 281 kts | 183° |
| 2026-04-29 12:27 | 30.01816 | 31.52054 | 6750 ft | 285 kts | 183° |
| 2026-04-29 12:27 | 29.99821 | 31.51973 | 7485 ft | 288 kts | 182° |
| 2026-04-29 12:28 | 29.97808 | 31.51916 | 8216 ft | 291 kts | 182° |
| 2026-04-29 12:28 | 29.95770 | 31.51878 | 8885 ft | 295 kts | 181° |
| 2026-04-29 12:28 | 29.93702 | 31.51854 | 9574 ft | 298 kts | 181° |
| 2026-04-29 12:28 | 29.91645 | 31.51837 | 10277 ft | 301 kts | 181° |
| 2026-04-29 12:29 | 29.89487 | 31.51825 | 10532 ft | 321 kts | 181° |
| 2026-04-29 12:29 | 29.87183 | 31.51817 | 10700 ft | 342 kts | 181° |
| 2026-04-29 12:29 | 29.84746 | 31.51812 | 10981 ft | 357 kts | 181° |
| 2026-04-29 12:29 | 29.82243 | 31.51810 | 11557 ft | 362 kts | 181° |
| 2026-04-29 12:30 | 29.79724 | 31.51809 | 12264 ft | 363 kts | 182° |
| 2026-04-29 12:30 | 29.77187 | 31.51807 | 12894 ft | 366 kts | 182° |
| 2026-04-29 12:30 | 29.74618 | 31.51804 | 13467 ft | 372 kts | 182° |
| 2026-04-29 12:30 | 29.72012 | 31.51801 | 14059 ft | 377 kts | 182° |
| 2026-04-29 12:31 | 29.69409 | 31.51998 | 14680 ft | 384 kts | 173° |
| 2026-04-29 12:31 | 29.66789 | 31.52725 | 15274 ft | 391 kts | 167° |
| 2026-04-29 12:31 | 29.64156 | 31.53602 | 15863 ft | 397 kts | 166° |
| 2026-04-29 12:31 | 29.61491 | 31.54510 | 16435 ft | 402 kts | 166° |
| 2026-04-29 12:32 | 29.58797 | 31.55427 | 17011 ft | 406 kts | 167° |
| 2026-04-29 12:32 | 29.56071 | 31.56345 | 17548 ft | 411 kts | 167° |
| 2026-04-29 12:32 | 29.53302 | 31.57269 | 18083 ft | 416 kts | 167° |
| 2026-04-29 12:32 | 29.50502 | 31.58197 | 18601 ft | 421 kts | 168° |
| 2026-04-29 12:33 | 29.47680 | 31.59126 | 19163 ft | 424 kts | 168° |
| 2026-04-29 12:33 | 29.44866 | 31.60048 | 19730 ft | 427 kts | 168° |
| 2026-04-29 12:33 | 29.42002 | 31.60985 | 20264 ft | 431 kts | 168° |
| 2026-04-29 12:33 | 29.39109 | 31.61931 | 20770 ft | 434 kts | 168° |
| 2026-04-29 12:34 | 29.36190 | 31.62887 | 21273 ft | 437 kts | 168° |
| 2026-04-29 12:34 | 29.33250 | 31.63847 | 21738 ft | 441 kts | 169° |
| 2026-04-29 12:34 | 29.30289 | 31.64813 | 22176 ft | 445 kts | 169° |
| 2026-04-29 12:34 | 29.27304 | 31.65787 | 22630 ft | 447 kts | 169° |
| 2026-04-29 12:35 | 29.25319 | 31.66435 | 22925 ft | 449 kts | 169° |
| 2026-04-29 12:35 | 29.22308 | 31.67418 | 23336 ft | 452 kts | 169° |
| 2026-04-29 12:35 | 29.19268 | 31.68409 | 23750 ft | 455 kts | 169° |
| 2026-04-29 12:35 | 29.16213 | 31.69404 | 24145 ft | 458 kts | 169° |
| 2026-04-29 12:36 | 29.13134 | 31.70407 | 24547 ft | 461 kts | 169° |
| 2026-04-29 12:36 | 29.09029 | 31.71742 | 24982 ft | 466 kts | 170° |
| 2026-04-29 12:36 | 29.06917 | 31.72430 | 25243 ft | 468 kts | 169° |
| 2026-04-29 12:36 | 29.03780 | 31.73451 | 25613 ft | 470 kts | 170° |
| 2026-04-29 12:37 | 29.00668 | 31.74462 | 25940 ft | 473 kts | 170° |
| 2026-04-29 12:37 | 28.97493 | 31.75491 | 26245 ft | 477 kts | 170° |
| 2026-04-29 12:37 | 28.94286 | 31.76518 | 26573 ft | 479 kts | 170° |
| 2026-04-29 12:37 | 28.91065 | 31.77540 | 26909 ft | 481 kts | 170° |
| 2026-04-29 12:38 | 28.87837 | 31.78561 | 27236 ft | 483 kts | 171° |
| 2026-04-29 12:38 | 28.84586 | 31.79591 | 27508 ft | 486 kts | 171° |
| 2026-04-29 12:38 | 28.81316 | 31.80626 | 27770 ft | 489 kts | 171° |
| 2026-04-29 12:38 | 28.78030 | 31.81666 | 28056 ft | 492 kts | 171° |
| 2026-04-29 12:39 | 28.74724 | 31.82714 | 28358 ft | 494 kts | 171° |
| 2026-04-29 12:39 | 28.71409 | 31.83764 | 28613 ft | 496 kts | 171° |
| 2026-04-29 12:39 | 28.68116 | 31.84806 | 28871 ft | 499 kts | 171° |
| 2026-04-29 12:39 | 28.64766 | 31.85866 | 29137 ft | 500 kts | 171° |
| 2026-04-29 12:40 | 28.61400 | 31.86930 | 29328 ft | 504 kts | 171° |
| 2026-04-29 12:40 | 28.54557 | 31.89089 | 29486 ft | 516 kts | 171° |
| 2026-04-29 12:40 | 28.51085 | 31.90184 | 29638 ft | 519 kts | 170° |
| 2026-04-29 12:41 | 28.47597 | 31.91285 | 29914 ft | 520 kts | 170° |
| 2026-04-29 12:41 | 28.44118 | 31.92386 | 30244 ft | 518 kts | 170° |
| 2026-04-29 12:41 | 28.40704 | 31.93465 | 30659 ft | 515 kts | 171° |
| 2026-04-29 12:41 | 28.37258 | 31.94552 | 31048 ft | 513 kts | 171° |
| 2026-04-29 12:42 | 28.33832 | 31.95636 | 31402 ft | 510 kts | 171° |
| 2026-04-29 12:42 | 28.30420 | 31.96709 | 31766 ft | 508 kts | 171° |
| 2026-04-29 12:42 | 28.27017 | 31.97774 | 32074 ft | 507 kts | 171° |
| 2026-04-29 12:42 | 28.23615 | 31.98840 | 32395 ft | 506 kts | 171° |
| 2026-04-29 12:43 | 28.20232 | 31.99900 | 32775 ft | 503 kts | 171° |
| 2026-04-29 12:43 | 28.16872 | 32.00953 | 33165 ft | 500 kts | 172° |
| 2026-04-29 12:43 | 28.13525 | 32.02002 | 33466 ft | 498 kts | 172° |
| 2026-04-29 12:43 | 28.10230 | 32.03033 | 33717 ft | 498 kts | 172° |
| 2026-04-29 12:44 | 28.06892 | 32.04076 | 33993 ft | 497 kts | 172° |
| 2026-04-29 12:44 | 28.03574 | 32.05114 | 34289 ft | 495 kts | 172° |
| 2026-04-29 12:44 | 28.00257 | 32.06161 | 34550 ft | 494 kts | 172° |
| 2026-04-29 12:44 | 27.96946 | 32.07217 | 34761 ft | 495 kts | 172° |
| 2026-04-29 12:45 | 27.93633 | 32.08278 | 34980 ft | 495 kts | 172° |
| 2026-04-29 12:45 | 27.86976 | 32.10409 | 35027 ft | 498 kts | 172° |
| 2026-04-29 12:46 | 27.80378 | 32.12519 | 35024 ft | 495 kts | 172° |
| 2026-04-29 12:46 | 27.73769 | 32.14627 | 35033 ft | 492 kts | 172° |
| 2026-04-29 12:47 | 27.67182 | 32.16722 | 35023 ft | 491 kts | 172° |
| 2026-04-29 12:47 | 27.60622 | 32.18806 | 35032 ft | 490 kts | 172° |
| 2026-04-29 12:48 | 27.54110 | 32.20870 | 35026 ft | 489 kts | 172° |
| 2026-04-29 12:48 | 27.47551 | 32.22951 | 35011 ft | 490 kts | 172° |
| 2026-04-29 12:49 | 27.40971 | 32.25032 | 34963 ft | 492 kts | 173° |
| 2026-04-29 12:49 | 27.34385 | 32.27152 | 34950 ft | 496 kts | 168° |
| 2026-04-29 12:49 | 27.31203 | 32.28774 | 34951 ft | 509 kts | 156° |
| 2026-04-29 12:50 | 27.28306 | 32.31037 | 34953 ft | 519 kts | 146° |
| 2026-04-29 12:50 | 27.25734 | 32.33931 | 34950 ft | 528 kts | 135° |
| 2026-04-29 12:50 | 27.23398 | 32.37122 | 34960 ft | 529 kts | 134° |
| 2026-04-29 12:51 | 27.18795 | 32.43604 | 34949 ft | 531 kts | 134° |
| 2026-04-29 12:51 | 27.14161 | 32.50043 | 34952 ft | 530 kts | 135° |
| 2026-04-29 12:52 | 27.09466 | 32.56438 | 34958 ft | 531 kts | 135° |
| 2026-04-29 12:52 | 27.04780 | 32.62772 | 34953 ft | 531 kts | 135° |
| 2026-04-29 12:53 | 27.00063 | 32.69144 | 34973 ft | 531 kts | 135° |
| 2026-04-29 12:53 | 26.95352 | 32.75507 | 34985 ft | 531 kts | 135° |
| 2026-04-29 12:54 | 26.90660 | 32.81836 | 34982 ft | 531 kts | 135° |
| 2026-04-29 12:54 | 26.85933 | 32.88202 | 34994 ft | 532 kts | 136° |
| 2026-04-29 12:55 | 26.81198 | 32.94572 | 34978 ft | 533 kts | 136° |
| 2026-04-29 12:55 | 26.76458 | 33.00937 | 34984 ft | 532 kts | 136° |
| 2026-04-29 12:56 | 26.71711 | 33.07303 | 34981 ft | 532 kts | 136° |
| 2026-04-29 12:56 | 26.66999 | 33.13613 | 34980 ft | 532 kts | 136° |
| 2026-04-29 12:57 | 26.62255 | 33.19960 | 34977 ft | 532 kts | 136° |
| 2026-04-29 12:57 | 26.57504 | 33.26305 | 34969 ft | 532 kts | 136° |
| 2026-04-29 12:58 | 26.52749 | 33.32647 | 34969 ft | 533 kts | 136° |
| 2026-04-29 12:58 | 26.47992 | 33.38983 | 35002 ft | 533 kts | 137° |
| 2026-04-29 12:59 | 26.43254 | 33.45285 | 34967 ft | 534 kts | 137° |
| 2026-04-29 12:59 | 26.38477 | 33.51624 | 34972 ft | 533 kts | 137° |
| 2026-04-29 13:00 | 26.33709 | 33.57938 | 34969 ft | 532 kts | 137° |
| 2026-04-29 13:00 | 26.28937 | 33.64252 | 34963 ft | 532 kts | 137° |
| 2026-04-29 13:01 | 26.24201 | 33.70514 | 34951 ft | 532 kts | 137° |
| 2026-04-29 13:01 | 26.19435 | 33.76805 | 34954 ft | 532 kts | 137° |
| 2026-04-29 13:02 | 26.16255 | 33.80994 | 34963 ft | 532 kts | 138° |
| 2026-04-29 13:03 | 26.00213 | 34.02088 | 34949 ft | 533 kts | 138° |
| 2026-04-29 13:04 | 25.95208 | 34.08651 | 34950 ft | 532 kts | 138° |
| 2026-04-29 13:04 | 25.90449 | 34.14880 | 34948 ft | 532 kts | 138° |
| 2026-04-29 13:05 | 25.85653 | 34.21140 | 34947 ft | 532 kts | 138° |
| 2026-04-29 13:05 | 25.80858 | 34.27389 | 34947 ft | 532 kts | 138° |
| 2026-04-29 13:06 | 25.76061 | 34.33637 | 34943 ft | 532 kts | 138° |
| 2026-04-29 13:06 | 25.71263 | 34.39876 | 34937 ft | 531 kts | 138° |
| 2026-04-29 13:07 | 25.66508 | 34.46054 | 34950 ft | 530 kts | 139° |
| 2026-04-29 13:07 | 25.61718 | 34.52270 | 34931 ft | 530 kts | 139° |
| 2026-04-29 13:08 | 25.56889 | 34.58419 | 34932 ft | 526 kts | 141° |
| 2026-04-29 13:08 | 25.51752 | 34.64113 | 34931 ft | 522 kts | 145° |
| 2026-04-29 13:09 | 25.46546 | 34.69638 | 34933 ft | 521 kts | 144° |
| 2026-04-29 13:09 | 25.41346 | 34.75240 | 34945 ft | 522 kts | 144° |
| 2026-04-29 13:10 | 25.36171 | 34.80887 | 34933 ft | 522 kts | 144° |
| 2026-04-29 13:10 | 25.31036 | 34.86498 | 34939 ft | 522 kts | 144° |
| 2026-04-29 13:11 | 25.25866 | 34.92135 | 34935 ft | 522 kts | 144° |
| 2026-04-29 13:11 | 25.20697 | 34.97757 | 34933 ft | 521 kts | 144° |
| 2026-04-29 13:12 | 25.15534 | 35.03366 | 34933 ft | 521 kts | 144° |
| 2026-04-29 13:12 | 25.10404 | 35.08932 | 34933 ft | 521 kts | 144° |
| 2026-04-29 13:13 | 25.05242 | 35.14526 | 34927 ft | 520 kts | 144° |
| 2026-04-29 13:13 | 25.00064 | 35.20098 | 34925 ft | 519 kts | 144° |
| 2026-04-29 13:14 | 24.94895 | 35.25641 | 34924 ft | 519 kts | 144° |
| 2026-04-29 13:14 | 24.89752 | 35.31153 | 34930 ft | 519 kts | 144° |
| 2026-04-29 13:15 | 24.84580 | 35.36691 | 34918 ft | 519 kts | 144° |
| 2026-04-29 13:15 | 24.79403 | 35.42229 | 34916 ft | 518 kts | 144° |
| 2026-04-29 13:16 | 24.74232 | 35.47758 | 34918 ft | 518 kts | 144° |
| 2026-04-29 13:16 | 24.69095 | 35.53244 | 34916 ft | 518 kts | 144° |
| 2026-04-29 13:17 | 24.63933 | 35.58746 | 34905 ft | 517 kts | 144° |
| 2026-04-29 13:17 | 24.58768 | 35.64245 | 34909 ft | 517 kts | 144° |
| 2026-04-29 13:18 | 24.53605 | 35.69736 | 34907 ft | 517 kts | 144° |
| 2026-04-29 13:18 | 24.48471 | 35.75191 | 34900 ft | 516 kts | 144° |
| 2026-04-29 13:19 | 24.43310 | 35.80667 | 34894 ft | 516 kts | 144° |
| 2026-04-29 13:19 | 24.38156 | 35.86129 | 34891 ft | 515 kts | 144° |
| 2026-04-29 13:20 | 24.33001 | 35.91585 | 34883 ft | 515 kts | 145° |
| 2026-04-29 13:20 | 24.27884 | 35.96995 | 34878 ft | 514 kts | 145° |
| 2026-04-29 13:21 | 24.22743 | 36.02425 | 34878 ft | 513 kts | 144° |
| 2026-04-29 13:21 | 24.17607 | 36.07842 | 34876 ft | 513 kts | 145° |
| 2026-04-29 13:22 | 24.12465 | 36.13258 | 34870 ft | 512 kts | 145° |
| 2026-04-29 13:22 | 24.07335 | 36.18657 | 34892 ft | 511 kts | 145° |
| 2026-04-29 13:23 | 24.02235 | 36.24016 | 34899 ft | 511 kts | 145° |
| 2026-04-29 13:23 | 23.97105 | 36.29400 | 34888 ft | 512 kts | 145° |
| 2026-04-29 13:24 | 23.91968 | 36.34786 | 34861 ft | 512 kts | 145° |
| 2026-04-29 13:24 | 23.86820 | 36.40179 | 34851 ft | 513 kts | 145° |
| 2026-04-29 13:25 | 23.81703 | 36.45534 | 34846 ft | 513 kts | 144° |
| 2026-04-29 13:25 | 23.73976 | 36.53605 | 34840 ft | 513 kts | 144° |
| 2026-04-29 13:26 | 23.68824 | 36.58978 | 34831 ft | 512 kts | 144° |
| 2026-04-29 13:26 | 23.63704 | 36.64314 | 34835 ft | 512 kts | 144° |
| 2026-04-29 13:27 | 23.58555 | 36.69673 | 34831 ft | 512 kts | 144° |
| 2026-04-29 13:27 | 23.53406 | 36.75027 | 34837 ft | 511 kts | 144° |
| 2026-04-29 13:28 | 23.48257 | 36.80374 | 34831 ft | 510 kts | 144° |
| 2026-04-29 13:28 | 23.43123 | 36.85700 | 34834 ft | 509 kts | 144° |
| 2026-04-29 13:29 | 23.38025 | 36.90983 | 34832 ft | 509 kts | 144° |
| 2026-04-29 13:29 | 23.32894 | 36.96291 | 34835 ft | 509 kts | 144° |
| 2026-04-29 13:30 | 23.27772 | 37.01584 | 34830 ft | 509 kts | 144° |
| 2026-04-29 13:30 | 23.22643 | 37.06881 | 34835 ft | 508 kts | 144° |
| 2026-04-29 13:31 | 23.17554 | 37.12131 | 34833 ft | 508 kts | 144° |
| 2026-04-29 13:31 | 23.12436 | 37.17404 | 34835 ft | 507 kts | 144° |
| 2026-04-29 13:32 | 23.07316 | 37.22674 | 34831 ft | 507 kts | 144° |
| 2026-04-29 13:32 | 23.02190 | 37.27944 | 34835 ft | 507 kts | 144° |
| 2026-04-29 13:33 | 22.97072 | 37.33200 | 34833 ft | 507 kts | 144° |
| 2026-04-29 13:33 | 22.91993 | 37.38410 | 34835 ft | 506 kts | 144° |
| 2026-04-29 13:34 | 22.86874 | 37.43656 | 34832 ft | 506 kts | 144° |
| 2026-04-29 13:34 | 22.81752 | 37.48900 | 34833 ft | 506 kts | 144° |
| 2026-04-29 13:35 | 22.76638 | 37.54133 | 34835 ft | 507 kts | 143° |
| 2026-04-29 13:35 | 22.72150 | 37.60073 | 34849 ft | 519 kts | 130° |
| 2026-04-29 13:36 | 22.68076 | 37.66528 | 34783 ft | 514 kts | 131° |
| 2026-04-29 13:36 | 22.66046 | 37.69662 | 34386 ft | 506 kts | 131° |
| 2026-04-29 13:36 | 22.64014 | 37.72762 | 33801 ft | 505 kts | 132° |
| 2026-04-29 13:37 | 22.61968 | 37.75863 | 33088 ft | 506 kts | 132° |
| 2026-04-29 13:37 | 22.59915 | 37.78969 | 32319 ft | 509 kts | 132° |
| 2026-04-29 13:37 | 22.57881 | 37.82052 | 31637 ft | 510 kts | 131° |
| 2026-04-29 13:37 | 22.55836 | 37.85162 | 31137 ft | 506 kts | 131° |
| 2026-04-29 13:38 | 22.53810 | 37.88247 | 30715 ft | 500 kts | 131° |
| 2026-04-29 13:38 | 22.51811 | 37.91294 | 30255 ft | 495 kts | 131° |
| 2026-04-29 13:38 | 22.49827 | 37.94313 | 29772 ft | 491 kts | 131° |
| 2026-04-29 13:38 | 22.47854 | 37.97310 | 29267 ft | 488 kts | 131° |
| 2026-04-29 13:39 | 22.45889 | 38.00291 | 28741 ft | 484 kts | 131° |
| 2026-04-29 13:39 | 22.43942 | 38.03244 | 28242 ft | 481 kts | 130° |
| 2026-04-29 13:39 | 22.42035 | 38.06135 | 27758 ft | 477 kts | 130° |
| 2026-04-29 13:39 | 22.40115 | 38.09043 | 27259 ft | 473 kts | 130° |
| 2026-04-29 13:40 | 22.38211 | 38.11926 | 26758 ft | 470 kts | 129° |
| 2026-04-29 13:40 | 22.36320 | 38.14787 | 26253 ft | 467 kts | 129° |
| 2026-04-29 13:40 | 22.34437 | 38.17637 | 25761 ft | 464 kts | 128° |
| 2026-04-29 13:40 | 22.32568 | 38.20464 | 25264 ft | 461 kts | 128° |
| 2026-04-29 13:41 | 22.30710 | 38.23273 | 24793 ft | 458 kts | 127° |
| 2026-04-29 13:41 | 22.28871 | 38.26048 | 24334 ft | 454 kts | 127° |
| 2026-04-29 13:41 | 22.27035 | 38.28809 | 23856 ft | 451 kts | 127° |
| 2026-04-29 13:41 | 22.25235 | 38.31514 | 23400 ft | 448 kts | 127° |
| 2026-04-29 13:42 | 22.23426 | 38.34232 | 22962 ft | 444 kts | 127° |
| 2026-04-29 13:42 | 22.21630 | 38.36928 | 22530 ft | 440 kts | 127° |
| 2026-04-29 13:42 | 22.19841 | 38.39588 | 22092 ft | 436 kts | 128° |
| 2026-04-29 13:42 | 22.18009 | 38.42173 | 21640 ft | 432 kts | 130° |
| 2026-04-29 13:43 | 22.16165 | 38.44709 | 21196 ft | 429 kts | 130° |
| 2026-04-29 13:43 | 22.14325 | 38.47229 | 20797 ft | 424 kts | 130° |
| 2026-04-29 13:43 | 22.12515 | 38.49720 | 20400 ft | 420 kts | 130° |
| 2026-04-29 13:43 | 22.10750 | 38.52160 | 19973 ft | 417 kts | 130° |
| 2026-04-29 13:44 | 22.08978 | 38.54619 | 19531 ft | 414 kts | 130° |
| 2026-04-29 13:44 | 22.07223 | 38.57060 | 19252 ft | 407 kts | 131° |
| 2026-04-29 13:44 | 22.05523 | 38.59427 | 19161 ft | 394 kts | 131° |
| 2026-04-29 13:44 | 22.03869 | 38.61726 | 19073 ft | 382 kts | 131° |
| 2026-04-29 13:45 | 22.02265 | 38.63955 | 18988 ft | 371 kts | 131° |
| 2026-04-29 13:45 | 22.00701 | 38.66138 | 18710 ft | 366 kts | 131° |
| 2026-04-29 13:45 | 21.99167 | 38.68283 | 18354 ft | 365 kts | 131° |
| 2026-04-29 13:45 | 21.97604 | 38.70469 | 18010 ft | 362 kts | 131° |
| 2026-04-29 13:46 | 21.96093 | 38.72583 | 17683 ft | 360 kts | 131° |
| 2026-04-29 13:46 | 21.94572 | 38.74707 | 17363 ft | 357 kts | 131° |
| 2026-04-29 13:46 | 21.93063 | 38.76815 | 17053 ft | 354 kts | 131° |
| 2026-04-29 13:46 | 21.91568 | 38.78903 | 16745 ft | 351 kts | 131° |
| 2026-04-29 13:47 | 21.90081 | 38.80979 | 16418 ft | 348 kts | 131° |
| 2026-04-29 13:47 | 21.88609 | 38.83033 | 16129 ft | 345 kts | 131° |
| 2026-04-29 13:47 | 21.87150 | 38.85067 | 15809 ft | 342 kts | 131° |
| 2026-04-29 13:47 | 21.85702 | 38.87085 | 15488 ft | 340 kts | 131° |
| 2026-04-29 13:48 | 21.84290 | 38.89055 | 15341 ft | 332 kts | 131° |
| 2026-04-29 13:48 | 21.82903 | 38.90990 | 15253 ft | 321 kts | 131° |
| 2026-04-29 13:48 | 21.81559 | 38.92863 | 15151 ft | 312 kts | 131° |
| 2026-04-29 13:48 | 21.80246 | 38.94691 | 15027 ft | 304 kts | 132° |
| 2026-04-29 13:49 | 21.78972 | 38.96465 | 14948 ft | 294 kts | 132° |
| 2026-04-29 13:49 | 21.77796 | 38.98229 | 14826 ft | 289 kts | 120° |
| 2026-04-29 13:49 | 21.77215 | 39.00294 | 14638 ft | 288 kts | 104° |
| 2026-04-29 13:49 | 21.76824 | 39.02398 | 14391 ft | 286 kts | 104° |
| 2026-04-29 13:50 | 21.76446 | 39.04460 | 14154 ft | 283 kts | 104° |
| 2026-04-29 13:50 | 21.76062 | 39.06537 | 13889 ft | 282 kts | 104° |
| 2026-04-29 13:50 | 21.75675 | 39.08602 | 13623 ft | 280 kts | 104° |
| 2026-04-29 13:50 | 21.75289 | 39.10642 | 13389 ft | 277 kts | 104° |
| 2026-04-29 13:51 | 21.74902 | 39.12671 | 13135 ft | 276 kts | 104° |
| 2026-04-29 13:51 | 21.74516 | 39.14688 | 12823 ft | 277 kts | 104° |
| 2026-04-29 13:51 | 21.74131 | 39.16696 | 12660 ft | 271 kts | 105° |
| 2026-04-29 13:51 | 21.73752 | 39.18663 | 12436 ft | 268 kts | 105° |
| 2026-04-29 13:52 | 21.73502 | 39.19957 | 12252 ft | 267 kts | 105° |
| 2026-04-29 13:52 | 21.73126 | 39.21910 | 12001 ft | 265 kts | 105° |
| 2026-04-29 13:52 | 21.72726 | 39.23831 | 11764 ft | 261 kts | 112° |
| 2026-04-29 13:52 | 21.71309 | 39.25785 | 11302 ft | 251 kts | 151° |
| 2026-04-29 13:53 | 21.69805 | 39.26569 | 11020 ft | 248 kts | 162° |
| 2026-04-29 13:53 | 21.68733 | 39.26985 | 10817 ft | 248 kts | 163° |
| 2026-04-29 13:53 | 21.67097 | 39.27600 | 10515 ft | 249 kts | 163° |
| 2026-04-29 13:53 | 21.65466 | 39.28224 | 10226 ft | 249 kts | 163° |
| 2026-04-29 13:54 | 21.63291 | 39.29070 | 9830 ft | 249 kts | 163° |
| 2026-04-29 13:54 | 21.62760 | 39.29276 | 9728 ft | 249 kts | 163° |
| 2026-04-29 13:54 | 21.58407 | 39.30978 | 8929 ft | 250 kts | 163° |
| 2026-04-29 13:55 | 21.56772 | 39.31617 | 8656 ft | 249 kts | 163° |
| 2026-04-29 13:55 | 21.55693 | 39.32039 | 8487 ft | 248 kts | 163° |
| 2026-04-29 13:55 | 21.53520 | 39.32887 | 8101 ft | 249 kts | 163° |
| 2026-04-29 13:55 | 21.51899 | 39.33524 | 7870 ft | 247 kts | 163° |
| 2026-04-29 13:56 | 21.50836 | 39.33944 | 7715 ft | 245 kts | 163° |
| 2026-04-29 13:56 | 21.48689 | 39.34785 | 7337 ft | 246 kts | 163° |
| 2026-04-29 13:56 | 21.47106 | 39.35404 | 7088 ft | 245 kts | 163° |
| 2026-04-29 13:56 | 21.45508 | 39.36030 | 7042 ft | 245 kts | 163° |
| 2026-04-29 13:57 | 21.43902 | 39.36656 | 7028 ft | 246 kts | 163° |
| 2026-04-29 13:57 | 21.42838 | 39.37074 | 7027 ft | 245 kts | 163° |
| 2026-04-29 13:57 | 21.41248 | 39.37701 | 7018 ft | 245 kts | 163° |
| 2026-04-29 13:57 | 21.39654 | 39.38327 | 7012 ft | 243 kts | 163° |
| 2026-04-29 13:58 | 21.38068 | 39.38946 | 7023 ft | 241 kts | 162° |
| 2026-04-29 13:58 | 21.36467 | 39.39408 | 7000 ft | 235 kts | 184° |
| 2026-04-29 13:58 | 21.34560 | 39.38557 | 7028 ft | 231 kts | 226° |
| 2026-04-29 13:58 | 21.33646 | 39.37161 | 7039 ft | 229 kts | 248° |
| 2026-04-29 13:59 | 21.33267 | 39.36085 | 6983 ft | 225 kts | 252° |
| 2026-04-29 13:59 | 21.32757 | 39.34520 | 6697 ft | 226 kts | 254° |
| 2026-04-29 13:59 | 21.32666 | 39.32857 | 6327 ft | 228 kts | 286° |
| 2026-04-29 13:59 | 21.33493 | 39.31424 | 6079 ft | 229 kts | 314° |
| 2026-04-29 14:00 | 21.34837 | 39.30520 | 5852 ft | 231 kts | 336° |
| 2026-04-29 14:00 | 21.36344 | 39.29939 | 5609 ft | 231 kts | 338° |
| 2026-04-29 14:00 | 21.37866 | 39.29379 | 5369 ft | 231 kts | 338° |
| 2026-04-29 14:00 | 21.39377 | 39.28810 | 5137 ft | 229 kts | 337° |
| 2026-04-29 14:01 | 21.41346 | 39.28034 | 4828 ft | 227 kts | 337° |
| 2026-04-29 14:01 | 21.42822 | 39.27451 | 4559 ft | 226 kts | 337° |
| 2026-04-29 14:01 | 21.44297 | 39.26868 | 4301 ft | 225 kts | 337° |
| 2026-04-29 14:01 | 21.45765 | 39.26290 | 4075 ft | 224 kts | 337° |
| 2026-04-29 14:02 | 21.46732 | 39.25907 | 3933 ft | 223 kts | 337° |
| 2026-04-29 14:02 | 21.47223 | 39.25714 | 3847 ft | 222 kts | 337° |
| 2026-04-29 14:02 | 21.50089 | 39.24583 | 3351 ft | 222 kts | 338° |
| 2026-04-29 14:02 | 21.51532 | 39.24015 | 3199 ft | 215 kts | 337° |
| 2026-04-29 14:03 | 21.52920 | 39.23464 | 2934 ft | 209 kts | 337° |
| 2026-04-29 14:03 | 21.54259 | 39.22939 | 2655 ft | 200 kts | 337° |
| 2026-04-29 14:03 | 21.55524 | 39.22440 | 2401 ft | 188 kts | 338° |
| 2026-04-29 14:03 | 21.56701 | 39.21978 | 2194 ft | 171 kts | 338° |
| 2026-04-29 14:04 | 21.57762 | 39.21559 | 1937 ft | 155 kts | 338° |
| 2026-04-29 14:04 | 21.58741 | 39.21172 | 1736 ft | 147 kts | 339° |
| 2026-04-29 14:04 | 21.59686 | 39.20797 | 1550 ft | 144 kts | 339° |
| 2026-04-29 14:04 | 21.60306 | 39.20553 | 1427 ft | 143 kts | 340° |
| 2026-04-29 14:05 | 21.61236 | 39.20187 | 1241 ft | 142 kts | 340° |
| 2026-04-29 14:05 | 21.62163 | 39.19821 | 1053 ft | 142 kts | 341° |
| 2026-04-29 14:05 | 21.63396 | 39.19334 | 805 ft | 144 kts | 341° |
| 2026-04-29 14:05 | 21.64350 | 39.18958 | 612 ft | 148 kts | 341° |
| 2026-04-29 14:06 | 21.65312 | 39.18571 | 376 ft | 148 kts | 340° |
| 2026-04-29 14:06 | 21.65946 | 39.18314 | 232 ft | 145 kts | 340° |
| 2026-04-29 14:06 | 21.66885 | 39.17949 | 41 ft | 141 kts | 341° |
| 2026-04-29 14:06 | 21.67748 | 39.17595 | 105 ft | 136 kts | 339° |
| 2026-04-29 14:07 | 21.68740 | 39.17167 | 622 ft | 170 kts | 339° |
| 2026-04-29 14:07 | 21.69905 | 39.16626 | 1404 ft | 193 kts | 337° |
| 2026-04-29 14:07 | 21.71091 | 39.16042 | 2103 ft | 185 kts | 335° |
| 2026-04-29 14:07 | 21.72307 | 39.15429 | 2761 ft | 202 kts | 335° |
| 2026-04-29 14:08 | 21.74137 | 39.14739 | 3099 ft | 215 kts | 351° |
| 2026-04-29 14:08 | 21.75147 | 39.14799 | 3139 ft | 218 kts | 13° |
| 2026-04-29 14:08 | 21.76459 | 39.15628 | 3270 ft | 225 kts | 43° |
| 2026-04-29 14:08 | 21.77218 | 39.17075 | 3381 ft | 230 kts | 77° |
| 2026-04-29 14:09 | 21.77135 | 39.18791 | 3523 ft | 235 kts | 110° |
| 2026-04-29 14:09 | 21.76450 | 39.20395 | 3700 ft | 235 kts | 117° |
| 2026-04-29 14:09 | 21.75698 | 39.21966 | 3813 ft | 236 kts | 118° |
| 2026-04-29 14:09 | 21.74936 | 39.23538 | 3934 ft | 238 kts | 118° |
| 2026-04-29 14:10 | 21.74122 | 39.25090 | 3995 ft | 236 kts | 130° |
| 2026-04-29 14:10 | 21.72968 | 39.26326 | 4024 ft | 236 kts | 139° |
| 2026-04-29 14:10 | 21.71772 | 39.27536 | 3994 ft | 237 kts | 139° |
| 2026-04-29 14:10 | 21.70592 | 39.28732 | 4024 ft | 236 kts | 139° |
| 2026-04-29 14:11 | 21.69393 | 39.29947 | 4006 ft | 236 kts | 139° |
| 2026-04-29 14:11 | 21.68199 | 39.31159 | 3992 ft | 235 kts | 139° |
| 2026-04-29 14:11 | 21.67010 | 39.32365 | 3907 ft | 235 kts | 139° |
| 2026-04-29 14:11 | 21.65820 | 39.33575 | 3813 ft | 235 kts | 139° |
| 2026-04-29 14:12 | 21.64613 | 39.34794 | 3564 ft | 240 kts | 140° |
| 2026-04-29 14:12 | 21.63191 | 39.35688 | 3255 ft | 235 kts | 169° |
| 2026-04-29 14:12 | 21.61615 | 39.35705 | 2994 ft | 224 kts | 193° |
| 2026-04-29 14:12 | 21.60094 | 39.35412 | 2749 ft | 222 kts | 193° |
| 2026-04-29 14:13 | 21.58589 | 39.35126 | 2671 ft | 215 kts | 193° |
| 2026-04-29 14:13 | 21.57137 | 39.34848 | 2701 ft | 217 kts | 193° |
| 2026-04-29 14:13 | 21.55630 | 39.34556 | 2700 ft | 223 kts | 194° |
| 2026-04-29 14:13 | 21.54135 | 39.34225 | 2688 ft | 214 kts | 203° |
| 2026-04-29 14:14 | 21.53030 | 39.33382 | 2678 ft | 197 kts | 236° |
| 2026-04-29 14:14 | 21.52411 | 39.32227 | 2459 ft | 192 kts | 244° |
| 2026-04-29 14:14 | 21.51735 | 39.30901 | 2158 ft | 191 kts | 246° |
| 2026-04-29 14:14 | 21.51481 | 39.29508 | 2111 ft | 192 kts | 280° |
| 2026-04-29 14:15 | 21.51939 | 39.28215 | 2106 ft | 182 kts | 295° |
| 2026-04-29 14:15 | 21.52460 | 39.26994 | 2060 ft | 177 kts | 294° |
| 2026-04-29 14:15 | 21.52957 | 39.25812 | 1889 ft | 171 kts | 294° |
| 2026-04-29 14:15 | 21.53427 | 39.24695 | 1780 ft | 161 kts | 294° |
| 2026-04-29 14:16 | 21.53891 | 39.23617 | 1713 ft | 158 kts | 299° |
| 2026-04-29 14:16 | 21.54718 | 39.22876 | 1718 ft | 159 kts | 337° |
| 2026-04-29 14:16 | 21.55743 | 39.22431 | 1707 ft | 157 kts | 337° |
| 2026-04-29 14:16 | 21.56751 | 39.21991 | 1693 ft | 155 kts | 338° |
| 2026-04-29 14:17 | 21.57728 | 39.21586 | 1697 ft | 148 kts | 339° |
| 2026-04-29 14:17 | 21.58664 | 39.21207 | 1705 ft | 146 kts | 339° |
| 2026-04-29 14:17 | 21.59618 | 39.20828 | 1684 ft | 148 kts | 339° |
| 2026-04-29 14:17 | 21.60588 | 39.20424 | 1585 ft | 149 kts | 338° |
| 2026-04-29 14:18 | 21.61566 | 39.20026 | 1347 ft | 148 kts | 340° |
| 2026-04-29 14:18 | 21.62517 | 39.19643 | 1047 ft | 145 kts | 340° |
| 2026-04-29 14:18 | 21.63449 | 39.19276 | 781 ft | 141 kts | 341° |
| 2026-04-29 14:18 | 21.64383 | 39.18904 | 562 ft | 145 kts | 341° |
| 2026-04-29 14:19 | 21.65322 | 39.18535 | 371 ft | 146 kts | 342° |
| 2026-04-29 14:19 | 21.66280 | 39.18174 | 195 ft | 146 kts | 341° |
| 2026-04-29 14:19 | 21.67261 | 39.17808 | 49 ft | 144 kts | 340° |
| 2026-04-29 14:19 | 21.68136 | 39.17457 | 28 ft | 122 kts | 343° |
| 2026-04-29 14:20 | 21.68731 | 39.17229 | 28 ft | 59 kts | 340° |
| 2026-04-29 14:20 | 21.68996 | 39.17124 | 30 ft | 35 kts | 340° |
| 2026-04-29 14:20 | 21.69217 | 39.17036 | 33 ft | 32 kts | 340° |
| 2026-04-29 14:20 | 21.69413 | 39.16940 | 29 ft | 24 kts | 303° |
| 2026-04-29 14:21 | 21.69400 | 39.16840 | 28 ft | 12 kts | 252° |
| 2026-04-29 14:21 | 21.69352 | 39.16760 | 27 ft | 14 kts | 205° |
| 2026-04-29 14:21 | 21.69259 | 39.16784 | 29 ft | 14 kts | 160° |
| 2026-04-29 14:21 | 21.69168 | 39.16819 | 28 ft | 14 kts | 160° |
| 2026-04-29 14:22 | 21.69078 | 39.16855 | 29 ft | 14 kts | 160° |
| 2026-04-29 14:22 | 21.68977 | 39.16896 | 29 ft | 17 kts | 160° |
| 2026-04-29 14:22 | 21.68864 | 39.16939 | 30 ft | 17 kts | 160° |
| 2026-04-29 14:22 | 21.68745 | 39.16986 | 29 ft | 20 kts | 160° |
| 2026-04-29 14:23 | 21.68606 | 39.17041 | 26 ft | 23 kts | 160° |
| 2026-04-29 14:23 | 21.68458 | 39.17099 | 26 ft | 23 kts | 160° |
| 2026-04-29 14:23 | 21.68307 | 39.17159 | 26 ft | 24 kts | 160° |
| 2026-04-29 14:23 | 21.68151 | 39.17221 | 30 ft | 24 kts | 159° |
| 2026-04-29 14:24 | 21.68000 | 39.17279 | 29 ft | 23 kts | 160° |
| 2026-04-29 14:24 | 21.67854 | 39.17336 | 30 ft | 22 kts | 158° |
| 2026-04-29 14:24 | 21.67713 | 39.17394 | 29 ft | 21 kts | 159° |
| 2026-04-29 14:24 | 21.67575 | 39.17419 | 30 ft | 21 kts | 213° |
| 2026-04-29 14:25 | 21.67447 | 39.17396 | 29 ft | 20 kts | 156° |
| 2026-04-29 14:25 | 21.67319 | 39.17449 | 29 ft | 19 kts | 160° |
| 2026-04-29 14:25 | 21.67200 | 39.17443 | 29 ft | 19 kts | 237° |
| 2026-04-29 14:25 | 21.67119 | 39.17337 | 29 ft | 18 kts | 221° |
| 2026-04-29 14:26 | 21.67012 | 39.17270 | 29 ft | 18 kts | 200° |
| 2026-04-29 14:26 | 21.66917 | 39.17253 | 29 ft | 1 kts | 175° |
| 2026-04-29 14:26 | 21.66911 | 39.17252 | 29 ft | 1 kts | 194° |
| 2026-04-29 14:26 | 21.66903 | 39.17246 | 29 ft | 2 kts | 220° |
| 2026-04-29 14:27 | 21.66899 | 39.17233 | 29 ft | 2 kts | 258° |
| 2026-04-29 14:27 | 21.66899 | 39.17220 | 29 ft | 2 kts | 270° |
| 2026-04-29 14:27 | 21.66902 | 39.17205 | 29 ft | 2 kts | 283° |
| 2026-04-29 14:28 | 21.66910 | 39.17174 | 29 ft | 2 kts | 286° |
| 2026-04-29 14:28 | 21.66911 | 39.17168 | 29 ft | 1 kts | 286° |
| 2026-04-29 14:28 | 21.66912 | 39.17167 | 29 ft | 0 kts | 286° |